Terminal Aerodrome Forecast
Issued by NWS

Home | Current Version | Previous Version | Text Only | Print | Product List | Glossary On
Versions: 1 2 3 4 5 6 7 8 9 10 11 12 13 14 15 16 17 18 19 20 21 22 23 24 25 26 27 28 29 30 31 32
873
FTUS45 KGJT 301126
TAFASE
TAF
KASE 301126Z 3012/3112 VRB03KT P6SM FEW120 SCT250
     FM301400 20007KT P6SM SCT120 SCT250
     FM301700 36009KT P6SM SCT110 SCT250
     FM302000 34010G19KT P6SM VCTS SCT090CB BKN180
     FM310200 21007KT P6SM SCT200
     FM310500 13004KT P6SM SCT250=

USA.gov is the U.S. government's official web portal to all federal, state and local government web resources and services.